Time;durP1;ratioP1;P1;durP2;ratioP2;P2;SDS_P1;SDS_P2;PMS_P1;PMS_P2;Temp;Humidity;BMP_temperature;BMP_pressure;BME280_temperature;BME280_humidity;BME280_pressure;Samples;Min_cycle;Max_cycle;Signal;HPM_P1;HPM_P2
2023/09/26 00:01:30;;;;;;;1.10;1.00;;;;;;;21.89;40.83;101283.03;4514112;28;20455;-64
2023/09/26 00:03:41;;;;;;;1.10;1.00;;;;;;;21.89;41.06;101275.25;4511563;28;20567;-64
2023/09/26 00:05:54;;;;;;;0.98;0.98;;;;;;;21.90;40.93;101276.06;4498383;28;20109;-64
2023/09/26 00:08:05;;;;;;;1.25;1.15;;;;;;;21.88;40.72;101276.44;4512927;28;20944;-64
2023/09/26 00:10:16;;;;;;;1.20;0.90;;;;;;;21.83;40.85;101265.19;4513204;28;20040;-65
2023/09/26 00:12:26;;;;;;;1.30;1.10;;;;;;;21.86;40.92;101273.09;4505866;28;20032;-64
2023/09/26 00:14:37;;;;;;;1.45;1.20;;;;;;;21.86;40.57;101281.72;4513256;28;20042;-64
2023/09/26 00:16:48;;;;;;;1.13;1.02;;;;;;;21.85;40.53;101276.34;4513269;28;20112;-64
2023/09/26 00:18:58;;;;;;;0.90;0.80;;;;;;;21.84;40.51;101272.59;4512029;28;20092;-64
2023/09/26 00:21:12;;;;;;;1.05;0.98;;;;;;;21.82;40.48;101265.53;4513591;28;20042;-65
2023/09/26 00:23:23;;;;;;;1.10;1.00;;;;;;;21.85;40.41;101277.16;4512378;28;20793;-65
2023/09/26 00:25:34;;;;;;;1.02;0.93;;;;;;;21.85;40.19;101271.41;4513544;28;20120;-65
2023/09/26 00:27:44;;;;;;;1.02;0.93;;;;;;;21.82;40.14;101272.13;4516498;28;20121;-65
2023/09/26 00:29:55;;;;;;;1.00;0.90;;;;;;;21.84;40.65;101272.59;4515049;28;20022;-64
2023/09/26 00:32:05;;;;;;;1.25;1.05;;;;;;;21.86;40.32;101278.84;4502685;28;20446;-65
2023/09/26 00:34:17;;;;;;;1.30;1.08;;;;;;;21.82;40.12;101269.25;4499088;28;20030;-65
2023/09/26 00:36:28;;;;;;;1.13;0.90;;;;;;;21.80;39.69;101263.00;4515072;28;20651;-64
2023/09/26 00:38:38;;;;;;;1.00;0.90;;;;;;;21.84;39.95;101268.88;4514426;28;20144;-64
2023/09/26 00:40:49;;;;;;;0.98;0.93;;;;;;;21.80;39.42;101267.94;4515315;28;20034;-65
2023/09/26 00:43:02;;;;;;;1.08;0.98;;;;;;;21.80;39.82;101267.94;4515904;28;20640;-64
2023/09/26 00:45:13;;;;;;;1.00;0.90;;;;;;;21.81;39.58;101276.22;4514739;28;20034;-65
2023/09/26 00:47:24;;;;;;;1.58;0.93;;;;;;;21.81;39.43;101269.59;4515639;28;20029;-65
2023/09/26 00:49:35;;;;;;;1.00;0.90;;;;;;;21.81;39.53;101281.09;4496930;28;20752;-64
2023/09/26 00:51:47;;;;;;;0.90;0.90;;;;;;;21.80;39.31;101274.50;4515263;28;20890;-64
2023/09/26 00:53:58;;;;;;;1.10;0.90;;;;;;;21.81;39.21;101276.22;4515256;28;20133;-65
2023/09/26 00:56:09;;;;;;;1.10;1.00;;;;;;;21.81;38.47;101275.34;4514488;28;20033;-64
2023/09/26 00:58:21;;;;;;;0.80;0.80;;;;;;;21.81;38.93;101276.22;4514491;28;20862;-64
2023/09/26 01:00:32;;;;;;;1.20;1.00;;;;;;;21.81;39.24;101276.22;4515788;28;20026;-64
2023/09/26 01:02:43;;;;;;;0.82;0.80;;;;;;;21.75;38.62;101269.03;4502821;28;20041;-65
2023/09/26 01:04:54;;;;;;;1.02;0.90;;;;;;;21.81;38.99;101276.22;4514693;28;20030;-64
2023/09/26 01:07:05;;;;;;;1.10;1.00;;;;;;;21.80;39.07;101267.94;4508408;28;20534;-65
2023/09/26 01:09:15;;;;;;;1.15;1.05;;;;;;;21.79;38.92;101272.84;4516173;28;20092;-65
2023/09/26 01:11:27;;;;;;;1.00;0.90;;;;;;;21.78;38.79;101265.44;4514310;28;20133;-64
2023/09/26 01:13:37;;;;;;;1.20;1.10;;;;;;;21.76;38.50;101267.81;4500568;28;20491;-64
2023/09/26 01:15:48;;;;;;;1.05;0.95;;;;;;;21.79;38.57;101269.13;4515226;28;20494;-65
2023/09/26 01:17:59;;;;;;;1.17;1.00;;;;;;;21.74;38.98;101255.81;4506078;28;20034;-64
2023/09/26 01:20:15;;;;;;;0.95;0.90;;;;;;;21.78;38.84;101265.44;4490520;28;20471;-64
2023/09/26 01:22:27;;;;;;;1.00;1.00;;;;;;;21.77;39.06;101263.72;4513498;28;20054;-65
2023/09/26 01:24:37;;;;;;;0.90;0.90;;;;;;;21.73;38.56;101250.41;4507224;28;20065;-64
2023/09/26 01:26:48;;;;;;;1.10;1.00;;;;;;;21.74;38.60;101258.69;4514718;28;20030;-64
2023/09/26 01:28:58;;;;;;;1.42;0.90;;;;;;;21.75;38.43;101256.66;4500493;28;20561;-65
2023/09/26 01:31:09;;;;;;;1.00;1.00;;;;;;;21.73;38.89;101254.13;4489713;28;20090;-65
2023/09/26 01:33:21;;;;;;;1.52;0.90;;;;;;;21.75;39.07;101251.78;4513796;28;20075;-64
2023/09/26 01:35:31;;;;;;;1.45;0.90;;;;;;;21.75;38.78;101254.66;4496834;28;20775;-65
2023/09/26 01:37:43;;;;;;;1.33;1.00;;;;;;;21.74;38.94;101252.13;4513818;28;20041;-64
2023/09/26 01:39:53;;;;;;;1.10;0.95;;;;;;;21.74;39.01;101252.13;4501029;28;20030;-64
2023/09/26 01:42:03;;;;;;;1.08;0.98;;;;;;;21.71;39.53;101245.03;4515466;28;20049;-65
2023/09/26 01:44:14;;;;;;;1.10;0.90;;;;;;;21.74;39.61;101252.13;4514524;28;20021;-65
2023/09/26 01:46:25;;;;;;;0.98;0.95;;;;;;;21.74;39.07;101250.06;4514447;28;20037;-65
2023/09/26 01:48:36;;;;;;;1.10;0.90;;;;;;;21.73;39.13;101257.00;4515940;28;20034;-65
2023/09/26 01:50:46;;;;;;;1.20;1.10;;;;;;;21.73;39.80;101250.41;4516325;28;20755;-65
2023/09/26 01:52:57;;;;;;;1.17;1.08;;;;;;;21.68;39.57;101239.16;4481963;28;20117;-65
2023/09/26 01:55:11;;;;;;;1.10;1.00;;;;;;;21.66;39.90;101244.44;4504671;28;20495;-65
2023/09/26 01:57:22;;;;;;;1.02;0.93;;;;;;;21.72;40.20;101255.31;4497875;28;20109;-65
2023/09/26 01:59:33;;;;;;;0.93;0.90;;;;;;;21.69;39.98;101250.28;4514166;28;20037;-65
2023/09/26 02:01:44;;;;;;;1.00;0.90;;;;;;;21.73;40.26;101256.16;4498544;28;20075;-65
2023/09/26 02:03:55;;;;;;;0.85;0.85;;;;;;;21.68;40.41;101244.91;4500597;28;20042;-65
2023/09/26 02:06:05;;;;;;;1.10;1.00;;;;;;;21.72;40.26;101252.44;4505617;28;20082;-65
2023/09/26 02:08:16;;;;;;;0.88;0.88;;;;;;;21.69;40.32;101244.53;4505117;28;20088;-65
2023/09/26 02:10:26;;;;;;;0.80;0.80;;;;;;;21.71;39.83;101247.06;4514228;28;20588;-65
2023/09/26 02:12:39;;;;;;;1.05;1.00;;;;;;;21.70;39.84;101252.00;4499497;28;20039;-65
2023/09/26 02:14:49;;;;;;;1.00;0.90;;;;;;;21.69;39.67;101249.47;4498404;28;20050;-65
2023/09/26 02:17:00;;;;;;;1.10;1.00;;;;;;;21.69;39.74;101246.59;4515246;28;20033;-65
2023/09/26 02:19:10;;;;;;;1.13;1.02;;;;;;;21.55;39.77;101226.84;4514822;28;20598;-65
2023/09/26 02:21:21;;;;;;;0.98;0.90;;;;;;;21.68;39.30;101254.38;4489669;28;20051;-65
2023/09/26 02:23:32;;;;;;;1.10;1.00;;;;;;;21.65;39.38;101248.50;4513611;28;20030;-65
2023/09/26 02:25:51;;;;;;;1.40;1.15;;;;;;;21.65;39.04;101243.59;4514071;28;20038;-65
2023/09/26 02:28:01;;;;;;;1.20;1.10;;;;;;;21.68;39.27;101242.03;4513754;28;20044;-65
2023/09/26 02:30:24;;;;;;;1.00;0.90;;;;;;;21.68;38.89;101237.13;4498093;28;20042;-66
2023/09/26 02:32:35;;;;;;;1.10;1.00;;;;;;;21.68;39.26;101242.03;4513659;28;20038;-65
2023/09/26 02:34:46;;;;;;;0.82;0.82;;;;;;;21.68;38.99;101231.38;4488906;28;20578;-65
2023/09/26 02:36:56;;;;;;;1.10;1.00;;;;;;;21.66;39.63;101230.91;4499571;28;20170;-65
2023/09/26 02:39:06;;;;;;;1.10;0.90;;;;;;;21.66;39.58;101227.22;4497971;28;20042;-65
2023/09/26 02:41:17;;;;;;;1.02;0.93;;;;;;;21.65;39.22;101232.13;4500220;28;21079;-65
2023/09/26 02:43:27;;;;;;;1.10;1.00;;;;;;;21.65;39.63;101226.38;4505139;28;20129;-65
2023/09/26 02:45:39;;;;;;;1.10;1.00;;;;;;;21.58;39.50;101219.56;4511960;28;20158;-65
2023/09/26 02:47:49;;;;;;;1.08;0.98;;;;;;;21.65;39.67;101232.13;4514823;28;20121;-65
2023/09/26 02:50:00;;;;;;;1.05;0.95;;;;;;;21.67;39.69;101235.47;4505502;28;20065;-66
2023/09/26 02:52:10;;;;;;;1.17;1.08;;;;;;;21.65;39.29;101228.38;4490407;28;20035;-65
2023/09/26 02:54:21;;;;;;;1.25;1.15;;;;;;;21.63;39.48;101223.00;4512425;28;20454;-65
2023/09/26 02:56:31;;;;;;;1.15;1.05;;;;;;;21.65;39.66;101220.63;4513494;28;20098;-65
2023/09/26 02:58:42;;;;;;;1.10;1.00;;;;;;;21.65;39.79;101216.91;4513927;28;20159;-65
2023/09/26 03:00:52;;;;;;;1.13;1.02;;;;;;;21.64;39.83;101218.09;4512675;28;20139;-65
2023/09/26 03:03:03;;;;;;;1.08;0.98;;;;;;;21.63;39.49;101213.53;4513685;28;20463;-65
2023/09/26 03:05:16;;;;;;;1.15;1.05;;;;;;;21.57;39.19;101212.97;4512779;28;20025;-65
2023/09/26 03:07:27;;;;;;;1.00;0.90;;;;;;;21.62;39.81;101220.50;4495925;28;20038;-65
2023/09/26 03:09:37;;;;;;;1.17;1.08;;;;;;;21.63;39.48;101222.16;4504326;28;20965;-65
2023/09/26 03:11:48;;;;;;;1.27;1.10;;;;;;;21.57;39.45;101207.22;4513438;28;20037;-67
2023/09/26 03:13:58;;;;;;;0.85;0.85;;;;;;;21.57;39.58;101212.13;4512956;28;20042;-65
2023/09/26 03:16:13;;;;;;;1.15;1.00;;;;;;;21.62;39.45;101218.47;4513466;28;21018;-65
2023/09/26 03:18:24;;;;;;;1.17;1.08;;;;;;;21.62;39.69;101211.88;4502560;28;20551;-66
2023/09/26 03:20:38;;;;;;;1.30;1.10;;;;;;;21.60;39.52;101217.13;4512010;28;20072;-65
2023/09/26 03:22:49;;;;;;;1.30;1.20;;;;;;;21.56;39.57;101211.28;4513198;28;20038;-65
2023/09/26 03:24:59;;;;;;;1.23;1.13;;;;;;;21.59;39.55;101222.06;4512694;28;20037;-65
2023/09/26 03:27:10;;;;;;;1.10;1.00;;;;;;;21.49;39.63;101187.22;4483179;28;20451;-65
2023/09/26 03:29:21;;;;;;;1.67;0.90;;;;;;;21.61;39.62;101213.09;4499907;28;20030;-65
2023/09/26 03:31:34;;;;;;;0.88;0.88;;;;;;;21.61;39.74;101213.09;4496559;28;20034;-65
2023/09/26 03:33:45;;;;;;;1.13;0.93;;;;;;;21.60;39.28;101212.25;4512665;28;20029;-65
2023/09/26 03:35:57;;;;;;;0.95;0.93;;;;;;;21.57;39.34;101192.84;4513396;28;20038;-65
2023/09/26 03:38:07;;;;;;;0.98;0.95;;;;;;;21.58;39.75;101202.31;4512218;28;20026;-65
2023/09/26 03:40:17;;;;;;;0.98;0.93;;;;;;;21.58;39.49;101208.88;4505740;28;20046;-65
2023/09/26 03:42:28;;;;;;;1.25;1.15;;;;;;;21.57;39.25;101212.97;4512366;28;20483;-65
2023/09/26 03:44:42;;;;;;;1.23;1.00;;;;;;;21.60;39.51;101217.97;4513493;28;20526;-65
2023/09/26 03:46:53;;;;;;;1.10;1.00;;;;;;;21.58;39.26;101206.00;4513766;28;20129;-65
2023/09/26 03:49:03;;;;;;;1.60;1.05;;;;;;;21.57;39.35;101201.47;4513286;28;20108;-65
2023/09/26 03:51:14;;;;;;;1.50;1.08;;;;;;;21.54;38.95;101189.84;4513180;28;20049;-65
2023/09/26 03:53:24;;;;;;;1.05;1.00;;;;;;;21.57;38.80;101207.22;4513106;28;20038;-65
2023/09/26 03:55:35;;;;;;;1.20;1.10;;;;;;;21.57;38.78;101200.63;4512667;28;20534;-65
2023/09/26 03:57:45;;;;;;;0.85;0.85;;;;;;;21.58;38.92;101208.06;4512503;28;20052;-65
2023/09/26 03:59:56;;;;;;;1.20;1.10;;;;;;;21.51;38.54;101197.16;4511860;28;20061;-65
2023/09/26 04:02:07;;;;;;;1.20;1.08;;;;;;;21.55;38.44;101200.97;4506451;28;20030;-65
2023/09/26 04:04:18;;;;;;;1.15;1.05;;;;;;;21.56;38.76;101210.44;4516024;28;20041;-64
2023/09/26 04:06:31;;;;;;;1.20;1.10;;;;;;;21.52;38.49;101198.84;4501110;28;20534;-65
2023/09/26 04:08:41;;;;;;;0.93;0.90;;;;;;;21.51;38.90;101200.03;4515621;28;20817;-65
2023/09/26 04:10:52;;;;;;;1.02;0.90;;;;;;;21.55;38.29;101214.53;4501799;28;20054;-64
2023/09/26 04:13:02;;;;;;;1.00;0.90;;;;;;;21.56;38.49;101204.69;4515879;28;20018;-65
2023/09/26 04:15:13;;;;;;;1.13;1.02;;;;;;;21.52;38.35;101198.84;4515975;28;20056;-65
2023/09/26 04:17:23;;;;;;;1.00;1.00;;;;;;;21.54;38.56;101204.22;4506533;28;20036;-64
2023/09/26 04:19:34;;;;;;;1.30;1.20;;;;;;;21.54;38.54;101207.94;4516215;28;20501;-65
2023/09/26 04:21:44;;;;;;;1.05;1.00;;;;;;;21.52;38.33;101201.69;4516511;28;20030;-64
2023/09/26 04:23:55;;;;;;;3.20;1.00;;;;;;;21.52;38.54;101200.84;4516694;28;20474;-65
2023/09/26 04:26:15;;;;;;;1.10;1.00;;;;;;;21.49;37.84;101193.81;4515340;28;20121;-65
2023/09/26 04:28:26;;;;;;;1.30;1.20;;;;;;;21.55;37.70;101203.03;4515359;28;20042;-65
2023/09/26 04:30:38;;;;;;;0.95;0.90;;;;;;;21.51;37.86;101193.44;4516155;28;20025;-65
2023/09/26 04:32:49;;;;;;;1.13;1.02;;;;;;;21.46;37.69;101176.44;4514094;28;20038;-65
2023/09/26 04:34:59;;;;;;;1.15;1.05;;;;;;;21.51;37.47;101181.97;4515942;28;20037;-65
2023/09/26 04:37:10;;;;;;;1.10;1.00;;;;;;;21.50;37.67;101188.91;4515485;28;20490;-64
2023/09/26 04:39:20;;;;;;;1.23;1.10;;;;;;;21.45;38.00;101169.88;4515447;28;20060;-64
2023/09/26 04:41:30;;;;;;;1.13;1.02;;;;;;;21.51;38.36;101174.19;4496178;28;20129;-65
2023/09/26 04:43:41;;;;;;;1.30;1.20;;;;;;;21.48;38.01;101179.81;4515190;28;20105;-65
2023/09/26 04:45:51;;;;;;;1.10;1.00;;;;;;;21.50;38.25;101181.09;4516383;28;20857;-64
2023/09/26 04:48:02;;;;;;;1.15;1.05;;;;;;;21.47;37.89;101178.16;4514980;28;20030;-65
2023/09/26 04:50:13;;;;;;;1.20;1.10;;;;;;;21.50;37.79;101181.09;4516382;28;20773;-65
2023/09/26 04:52:24;;;;;;;0.95;0.90;;;;;;;21.48;37.48;101177.78;4515381;28;20811;-65
2023/09/26 04:54:34;;;;;;;1.25;1.00;;;;;;;21.50;37.56;101177.44;4515752;28;20053;-65
2023/09/26 04:56:46;;;;;;;1.50;0.90;;;;;;;21.49;37.32;101170.84;4514653;28;20382;-65
2023/09/26 04:58:57;;;;;;;1.30;1.00;;;;;;;21.48;37.47;101165.44;4514596;28;21233;-64
2023/09/26 05:01:15;;;;;;;1.40;1.30;;;;;;;21.50;37.51;101168.81;4514826;28;20022;-65
2023/09/26 05:03:26;;;;;;;1.88;1.30;;;;;;;21.47;37.34;101167.47;4514913;28;20478;-65
2023/09/26 05:05:36;;;;;;;2.08;1.23;;;;;;;21.45;37.82;101158.41;4514307;28;20451;-65
2023/09/26 05:07:48;;;;;;;1.23;1.13;;;;;;;21.47;37.89;101161.72;4515234;28;20034;-65
2023/09/26 05:10:00;;;;;;;1.27;1.10;;;;;;;21.47;37.85;101158.03;4515517;28;20026;-65
2023/09/26 05:12:10;;;;;;;1.10;1.00;;;;;;;21.44;38.06;101150.97;4514817;28;20037;-65
2023/09/26 05:14:21;;;;;;;1.40;1.10;;;;;;;21.42;37.69;101152.53;4515345;28;20833;-65
2023/09/26 05:16:31;;;;;;;1.15;1.08;;;;;;;21.47;37.63;101166.66;4513941;28;20040;-64
2023/09/26 05:18:41;;;;;;;1.00;0.90;;;;;;;21.44;37.55;101159.56;4515611;28;20608;-64
2023/09/26 05:20:52;;;;;;;1.10;1.00;;;;;;;21.46;37.24;101162.09;4505832;28;20490;-65
2023/09/26 05:23:03;;;;;;;1.52;1.20;;;;;;;21.42;37.55;101153.34;4515251;28;20117;-65
2023/09/26 05:25:15;;;;;;;1.15;1.05;;;;;;;21.43;37.02;101151.31;4513244;28;20782;-64
2023/09/26 05:27:25;;;;;;;1.60;1.05;;;;;;;21.37;37.00;101145.00;4515773;28;20026;-65
2023/09/26 05:29:35;;;;;;;1.10;1.00;;;;;;;21.44;37.60;101156.72;4515196;28;20042;-64
2023/09/26 05:31:46;;;;;;;1.17;0.95;;;;;;;21.42;37.45;101156.22;4514669;28;20220;-65
2023/09/26 05:33:58;;;;;;;1.20;1.10;;;;;;;21.40;37.27;101152.91;4514804;28;20095;-65
2023/09/26 05:36:08;;;;;;;1.85;0.98;;;;;;;21.43;37.42;101160.78;4496847;28;20149;-66
2023/09/26 05:38:20;;;;;;;1.83;1.30;;;;;;;21.41;37.30;101154.56;4514642;28;20502;-65
2023/09/26 05:40:30;;;;;;;0.98;0.88;;;;;;;21.40;37.47;101154.91;4514667;28;20025;-65
2023/09/26 05:42:40;;;;;;;1.27;1.00;;;;;;;21.43;37.99;101160.78;4514031;28;20021;-65
2023/09/26 05:44:51;;;;;;;1.33;1.13;;;;;;;21.44;38.22;101171.06;4514460;28;20038;-65
2023/09/26 05:47:02;;;;;;;1.20;1.10;;;;;;;21.41;38.21;101174.66;4515070;28;20042;-66
2023/09/26 05:49:12;;;;;;;1.23;1.10;;;;;;;21.39;38.35;101165.56;4513452;28;20121;-65
2023/09/26 05:51:23;;;;;;;2.35;1.10;;;;;;;21.44;38.02;101184.56;4498490;28;20069;-65
2023/09/26 05:53:33;;;;;;;1.25;1.15;;;;;;;21.42;38.09;101178.38;4500721;28;20038;-65
2023/09/26 05:55:43;;;;;;;1.10;1.00;;;;;;;21.41;38.43;101174.66;4496319;28;20795;-65
2023/09/26 05:57:54;;;;;;;1.30;1.20;;;;;;;21.40;38.21;101177.91;4514583;28;20021;-65
2023/09/26 06:00:11;;;;;;;1.20;1.10;;;;;;;21.28;38.33;101161.50;4507173;28;20046;-65
2023/09/26 06:02:22;;;;;;;1.40;1.08;;;;;;;21.41;38.40;101173.81;4515463;28;20036;-65
2023/09/26 06:04:32;;;;;;;1.42;1.10;;;;;;;21.41;38.58;101166.03;4495510;28;20029;-65
2023/09/26 06:06:43;;;;;;;1.00;0.90;;;;;;;21.40;38.59;101164.38;4514401;28;20040;-65
2023/09/26 06:08:53;;;;;;;1.05;0.95;;;;;;;21.39;38.98;101162.69;4495489;28;20169;-65
2023/09/26 06:11:04;;;;;;;1.17;1.00;;;;;;;21.40;39.20;101173.00;4514428;28;20022;-65
2023/09/26 06:13:15;;;;;;;1.50;1.13;;;;;;;21.40;39.27;101164.38;4512731;28;20038;-65
2023/09/26 06:15:25;;;;;;;1.23;1.05;;;;;;;21.39;39.54;101170.50;4512812;28;20038;-65
2023/09/26 06:17:36;;;;;;;0.95;0.80;;;;;;;21.41;39.41;101200.50;4496572;28;20576;-65
2023/09/26 06:19:47;;;;;;;0.73;0.70;;;;;;;21.43;44.78;101180.88;4505535;28;20042;-65
2023/09/26 06:21:57;;;;;;;1.05;0.80;;;;;;;21.43;46.08;101168.56;4514004;28;20146;-65
2023/09/26 06:24:09;;;;;;;0.77;0.60;;;;;;;21.43;47.25;101172.28;4513561;28;20813;-65
2023/09/26 06:26:19;;;;;;;0.60;0.60;;;;;;;21.44;47.84;101167.34;4505264;28;20174;-65
2023/09/26 06:28:31;;;;;;;0.82;0.70;;;;;;;21.37;47.25;101150.75;4514047;28;20076;-65
2023/09/26 06:30:41;;;;;;;0.80;0.80;;;;;;;21.43;47.57;101163.66;4513461;28;20838;-65
2023/09/26 06:32:52;;;;;;;0.68;0.60;;;;;;;21.41;47.87;101150.84;4500232;28;20033;-65
2023/09/26 06:35:02;;;;;;;1.00;0.77;;;;;;;21.42;47.03;101159.09;4494564;28;20078;-65
2023/09/26 06:37:13;;;;;;;0.70;0.70;;;;;;;21.46;47.03;101174.44;4482352;28;20164;-65
2023/09/26 06:39:24;;;;;;;0.90;0.75;;;;;;;21.45;47.25;101175.63;4512933;28;20089;-65
2023/09/26 06:41:34;;;;;;;0.98;0.90;;;;;;;21.46;47.42;101171.56;4513591;28;20986;-65
2023/09/26 06:43:45;;;;;;;0.80;0.80;;;;;;;21.43;46.86;101163.66;4514237;28;20172;-65
2023/09/26 06:45:55;;;;;;;1.23;0.80;;;;;;;21.45;46.42;101169.88;4505019;28;20478;-65
2023/09/26 06:48:06;;;;;;;0.85;0.82;;;;;;;21.46;46.57;101165.81;4498546;28;20030;-65
2023/09/26 06:50:17;;;;;;;0.75;0.75;;;;;;;21.47;45.91;101172.41;4512406;28;20601;-64
2023/09/26 06:52:27;;;;;;;1.33;0.80;;;;;;;21.39;46.44;101159.81;4512630;28;20410;-66
2023/09/26 06:54:38;;;;;;;1.00;0.90;;;;;;;21.44;45.17;101164.47;4493626;28;20064;-65
2023/09/26 06:56:48;;;;;;;1.17;0.82;;;;;;;21.46;46.13;101171.56;4514018;28;20406;-65
2023/09/26 06:58:58;;;;;;;1.10;1.00;;;;;;;21.46;45.27;101171.56;4512729;28;20037;-65
2023/09/26 07:01:18;;;;;;;0.95;0.90;;;;;;;21.42;45.85;101164.84;4513286;28;20520;-65
2023/09/26 07:03:28;;;;;;;0.80;0.80;;;;;;;21.44;45.21;101164.47;4500758;28;20045;-65
2023/09/26 07:05:39;;;;;;;1.58;1.00;;;;;;;21.45;44.47;101172.75;4512242;28;20026;-65
2023/09/26 07:07:49;;;;;;;0.80;0.80;;;;;;;21.47;45.10;101175.28;4505790;28;20064;-65
2023/09/26 07:10:01;;;;;;;1.25;0.80;;;;;;;21.46;45.62;101176.44;4513906;28;20040;-65
2023/09/26 07:12:11;;;;;;;1.65;0.93;;;;;;;21.46;45.77;101185.91;4513304;28;20026;-64
2023/09/26 07:14:22;;;;;;;1.20;0.90;;;;;;;21.45;46.20;101184.25;4514330;28;20415;-65
2023/09/26 07:16:33;;;;;;;1.13;1.02;;;;;;;21.32;45.92;101153.00;4497437;28;20034;-64
2023/09/26 07:18:44;;;;;;;1.73;0.80;;;;;;;21.41;45.72;101168.06;4512867;28;20041;-65
2023/09/26 07:20:54;;;;;;;1.17;0.95;;;;;;;21.44;46.05;101167.34;4497738;28;20439;-65
2023/09/26 07:23:05;;;;;;;1.15;0.93;;;;;;;21.44;46.17;101168.19;4488972;28;20522;-65
2023/09/26 07:25:16;;;;;;;1.77;0.80;;;;;;;21.46;46.26;101165.81;4514690;28;20040;-65
2023/09/26 07:27:26;;;;;;;0.98;0.98;;;;;;;21.45;46.58;101169.88;4512095;28;20120;-65
2023/09/26 07:29:37;;;;;;;1.00;0.90;;;;;;;21.43;46.62;101172.28;4497541;28;20065;-65
2023/09/26 07:31:47;;;;;;;1.83;1.00;;;;;;;21.42;45.89;101169.75;4513132;28;20029;-65
2023/09/26 07:33:57;;;;;;;1.25;1.00;;;;;;;21.45;46.43;101181.38;4498097;28;20117;-65
2023/09/26 07:36:09;;;;;;;1.00;0.90;;;;;;;21.44;46.51;101171.06;4514733;28;20033;-65
2023/09/26 07:38:19;;;;;;;1.00;0.90;;;;;;;21.46;46.47;101165.81;4515607;28;20040;-65
2023/09/26 07:40:29;;;;;;;1.20;0.90;;;;;;;21.41;46.82;101157.44;4517128;28;20522;-65
2023/09/26 07:42:41;;;;;;;1.00;0.90;;;;;;;21.46;46.88;101160.06;4516629;28;20112;-65
2023/09/26 07:45:04;;;;;;;1.30;1.20;;;;;;;21.40;46.24;101152.03;4516102;28;20038;-65
2023/09/26 07:47:15;;;;;;;1.15;1.02;;;;;;;21.45;46.73;101163.28;4516613;28;20100;-65
2023/09/26 07:49:25;;;;;;;1.00;0.90;;;;;;;21.43;46.93;101163.66;4514861;28;20560;-65
2023/09/26 07:51:36;;;;;;;1.88;1.00;;;;;;;21.45;46.92;101169.03;4517802;28;20387;-65
2023/09/26 07:53:46;;;;;;;0.85;0.82;;;;;;;21.41;47.38;101168.91;4514699;28;20073;-67
2023/09/26 07:55:57;;;;;;;1.20;1.00;;;;;;;21.45;46.93;101172.75;4515973;28;20033;-65
2023/09/26 07:58:08;;;;;;;1.20;0.98;;;;;;;21.38;47.22;101160.19;4515402;28;20473;-65
2023/09/26 08:00:19;;;;;;;1.25;1.00;;;;;;;21.41;47.70;101157.44;4516521;28;20029;-65
2023/09/26 08:02:30;;;;;;;1.75;1.10;;;;;;;21.43;47.54;101165.69;4502436;28;20073;-65
2023/09/26 08:04:40;;;;;;;1.25;1.00;;;;;;;21.41;47.86;101162.31;4515516;28;20132;-65
2023/09/26 08:06:51;;;;;;;1.25;0.95;;;;;;;21.44;48.42;101171.06;4500887;28;20480;-65
2023/09/26 08:09:03;;;;;;;1.23;1.00;;;;;;;21.43;48.70;101168.56;4516796;28;20037;-65
2023/09/26 08:11:14;;;;;;;1.20;1.10;;;;;;;21.44;48.79;101170.22;4499710;28;20042;-65
2023/09/26 08:13:24;;;;;;;1.27;1.17;;;;;;;21.45;48.49;101164.16;4514900;28;20033;-65
2023/09/26 08:15:35;;;;;;;1.30;1.10;;;;;;;21.43;48.43;101166.53;4500802;28;20422;-65
2023/09/26 08:17:45;;;;;;;1.13;1.02;;;;;;;21.45;48.58;101166.16;4515981;28;20034;-65
2023/09/26 08:19:56;;;;;;;1.25;1.10;;;;;;;21.42;48.91;101164.84;4502496;28;20037;-65
2023/09/26 08:22:06;;;;;;;2.03;1.20;;;;;;;21.40;48.83;101160.66;4514864;28;20100;-67
2023/09/26 08:24:17;;;;;;;1.23;1.13;;;;;;;21.39;49.17;101156.94;4514259;28;20477;-65
2023/09/26 08:26:27;;;;;;;1.10;0.98;;;;;;;21.44;49.28;101168.19;4515856;28;20517;-65
2023/09/26 08:28:41;;;;;;;1.63;1.38;;;;;;;21.43;49.15;101163.66;4501636;28;20030;-65
2023/09/26 08:30:56;;;;;;;1.33;1.00;;;;;;;21.38;49.57;101158.16;4514220;28;20037;-65
2023/09/26 08:33:06;;;;;;;1.02;0.93;;;;;;;21.45;49.45;101167.03;4514448;28;20038;-65
2023/09/26 08:35:17;;;;;;;0.98;0.90;;;;;;;21.40;49.50;101158.63;4514492;28;20122;-65
2023/09/26 08:37:27;;;;;;;1.25;1.00;;;;;;;21.45;49.70;101163.28;4505561;28;20045;-65
2023/09/26 08:39:38;;;;;;;1.00;0.90;;;;;;;21.34;50.21;101139.13;4514587;28;20049;-65
2023/09/26 08:41:50;;;;;;;0.90;0.90;;;;;;;21.45;49.65;101161.28;4490871;28;20546;-65
2023/09/26 08:44:00;;;;;;;1.10;0.95;;;;;;;21.43;50.03;101154.19;4491016;28;20099;-64
2023/09/26 08:46:11;;;;;;;0.90;0.90;;;;;;;21.44;50.11;101159.56;4489827;28;20452;-65
2023/09/26 08:48:22;;;;;;;1.35;1.10;;;;;;;21.43;50.58;101152.16;4514692;28;20042;-65
2023/09/26 08:50:32;;;;;;;0.80;0.80;;;;;;;21.32;50.75;101132.91;4513877;28;20030;-65
2023/09/26 08:52:43;;;;;;;1.13;0.95;;;;;;;21.39;50.62;101151.19;4515196;28;20121;-65
2023/09/26 08:54:53;;;;;;;1.10;1.00;;;;;;;21.42;50.84;101153.34;4515124;28;20042;-65
2023/09/26 08:57:04;;;;;;;1.63;1.10;;;;;;;21.40;50.66;101147.16;4513974;28;20026;-65
2023/09/26 08:59:18;;;;;;;0.88;0.80;;;;;;;21.42;50.93;101150.47;4514837;28;20450;-65
2023/09/26 09:01:28;;;;;;;1.33;1.10;;;;;;;21.45;51.11;101157.56;4516147;28;20036;-65
2023/09/26 09:03:39;;;;;;;1.10;1.00;;;;;;;21.45;50.93;101157.56;4500656;28;20049;-65
2023/09/26 09:05:49;;;;;;;0.80;0.80;;;;;;;21.45;51.24;101152.66;4516428;28;20086;-65
2023/09/26 09:08:00;;;;;;;0.90;0.90;;;;;;;21.41;50.89;101143.06;4503298;28;20522;-65
2023/09/26 09:10:12;;;;;;;1.05;0.95;;;;;;;21.45;51.23;101146.91;4501941;28;20072;-65
2023/09/26 09:12:23;;;;;;;1.27;1.10;;;;;;;21.43;51.05;101139.84;4515906;28;20034;-65
2023/09/26 09:14:34;;;;;;;1.10;1.00;;;;;;;21.46;51.16;101147.72;4513774;28;20088;-68
2023/09/26 09:16:55;;;;;;;1.05;0.95;;;;;;;21.45;51.93;101140.31;4514096;28;20526;-65
2023/09/26 09:19:06;;;;;;;0.90;0.90;;;;;;;21.43;51.23;101132.06;4514254;28;21011;-65
2023/09/26 09:21:30;;;;;;;1.10;1.00;;;;;;;21.35;51.36;101117.81;4500673;28;20200;-65
2023/09/26 09:23:48;;;;;;;1.00;0.90;;;;;;;21.43;51.31;101125.47;4499998;28;20085;-65
2023/09/26 09:26:10;;;;;;;1.23;1.02;;;;;;;21.42;50.98;101124.63;4515646;28;20037;-66
2023/09/26 09:28:21;;;;;;;1.33;1.10;;;;;;;21.46;50.89;101131.34;4513489;28;20708;-65
2023/09/26 09:30:44;;;;;;;1.15;0.95;;;;;;;21.45;51.57;101132.56;4514371;28;20317;-65
2023/09/26 09:32:56;;;;;;;0.80;0.80;;;;;;;21.42;50.97;101120.94;4513000;28;20037;-65
2023/09/26 09:35:09;;;;;;;0.88;0.85;;;;;;;21.40;51.71;101120.47;4514332;28;20828;-65
2023/09/26 09:37:20;;;;;;;1.45;1.25;;;;;;;21.38;52.10;101117.09;4503940;28;20087;-65
2023/09/26 09:39:30;;;;;;;1.08;0.98;;;;;;;21.41;52.33;101117.22;4497153;28;20071;-65
2023/09/26 09:41:41;;;;;;;1.20;1.10;;;;;;;21.43;51.75;101114.84;4497146;28;20030;-65
2023/09/26 09:43:51;;;;;;;1.10;0.98;;;;;;;21.45;52.03;101118.19;4514202;28;20041;-66
2023/09/26 09:46:08;;;;;;;1.30;1.00;;;;;;;21.45;52.61;101114.47;4514108;28;20125;-66
2023/09/26 09:48:22;;;;;;;1.00;0.90;;;;;;;21.43;52.02;101111.97;4513958;28;20205;-66
2023/09/26 09:50:36;;;;;;;1.35;1.10;;;;;;;21.45;52.22;101118.19;4497333;28;21542;-65
2023/09/26 09:52:51;;;;;;;1.23;1.10;;;;;;;21.38;52.18;101100.72;4514808;28;20128;-65
2023/09/26 09:55:08;;;;;;;1.15;1.02;;;;;;;21.42;51.79;101115.19;4504571;28;20104;-66
2023/09/26 09:57:22;;;;;;;1.58;1.10;;;;;;;21.45;51.88;101106.72;4512900;28;20044;-65
2023/09/26 09:59:36;;;;;;;1.20;1.10;;;;;;;21.43;52.25;101105.38;4512122;28;20086;-65
2023/09/26 10:01:49;;;;;;;1.38;1.10;;;;;;;21.46;52.36;101102.63;4499399;28;21176;-66
2023/09/26 10:04:01;;;;;;;1.42;1.10;;;;;;;21.41;51.99;101090.53;4513694;28;20045;-65
2023/09/26 10:06:11;;;;;;;1.10;0.90;;;;;;;21.43;51.84;101102.50;4512531;28;20910;-65
2023/09/26 10:08:22;;;;;;;1.10;1.00;;;;;;;21.43;52.07;101103.34;4513140;28;20116;-66
2023/09/26 10:10:34;;;;;;;1.17;1.00;;;;;;;21.45;52.40;101103.00;4483030;28;20045;-66